Time;durP1;ratioP1;P1;durP2;ratioP2;P2;SDS_P1;SDS_P2;PMS_P1;PMS_P2;Temp;Humidity;BMP_temperature;BMP_pressure;BME280_temperature;BME280_humidity;BME280_pressure;Samples;Min_cycle;Max_cycle;Signal;HPM_P1;HPM_P2
2023/07/25 00:01:38;;;;;;;25.23;19.00;;;;;;;24.49;72.69;99189.22;1423306;91;21495;-81
2023/07/25 00:04:04;;;;;;;31.20;19.17;;;;;;;24.48;72.75;99187.58;1424095;91;22373;-81
2023/07/25 00:06:30;;;;;;;31.35;19.32;;;;;;;24.45;72.83;99184.06;1478758;88;21560;-81
2023/07/25 00:08:56;;;;;;;24.67;17.27;;;;;;;24.43;72.93;99195.70;1428191;91;21487;-80
2023/07/25 00:11:23;;;;;;;30.00;19.77;;;;;;;24.39;73.22;99197.27;1429748;89;21494;-80
2023/07/25 00:13:49;;;;;;;28.55;20.48;;;;;;;24.35;73.25;99202.95;1478826;86;21455;-81
2023/07/25 00:16:15;;;;;;;24.55;17.87;;;;;;;24.31;74.07;99209.42;1491482;86;21396;-81
2023/07/25 00:18:41;;;;;;;27.47;19.80;;;;;;;24.28;73.84;99210.80;1507365;86;21624;-82
2023/07/25 00:21:07;;;;;;;28.00;18.52;;;;;;;24.23;75.07;99212.67;1492209;86;21928;-80
2023/07/25 00:23:34;;;;;;;26.37;17.87;;;;;;;24.22;75.08;99224.00;1451330;89;22299;-81
2023/07/25 00:26:00;;;;;;;31.55;20.37;;;;;;;24.22;75.34;99230.76;1494001;86;21374;-81
2023/07/25 00:28:27;;;;;;;28.80;19.27;;;;;;;24.21;75.29;99229.14;1498553;86;21618;-81
2023/07/25 00:30:53;;;;;;;31.05;20.57;;;;;;;24.20;74.92;99238.34;1490666;86;21360;-81
2023/07/25 00:33:19;;;;;;;27.02;18.57;;;;;;;24.18;75.15;99251.30;1487749;86;22070;-80
2023/07/25 00:35:53;;;;;;;25.60;19.55;;;;;;;24.16;75.21;99252.09;1457571;89;21448;-83
2023/07/25 00:38:19;;;;;;;28.42;19.50;;;;;;;24.11;75.00;99245.34;1507447;86;22440;-81
2023/07/25 00:40:46;;;;;;;27.00;17.77;;;;;;;24.09;75.31;99254.25;1456871;89;21442;-83
2023/07/25 00:43:13;;;;;;;30.27;19.25;;;;;;;24.06;75.61;99250.73;1498161;86;21632;-82
2023/07/25 00:45:39;;;;;;;24.07;17.50;;;;;;;24.03;75.72;99243.15;1450840;89;22586;-81
2023/07/25 00:48:06;;;;;;;23.70;18.10;;;;;;;24.02;75.76;99250.96;1501272;86;21456;-82
2023/07/25 00:50:32;;;;;;;27.62;19.25;;;;;;;24.02;75.91;99253.67;1497147;86;21447;-82
2023/07/25 00:53:01;;;;;;;26.40;19.25;;;;;;;24.02;76.26;99248.27;1491038;87;21477;-83
2023/07/25 00:55:28;;;;;;;26.27;18.12;;;;;;;24.03;76.33;99249.91;1495058;87;21677;-82
2023/07/25 00:57:55;;;;;;;30.65;17.12;;;;;;;24.04;76.45;99256.38;1492402;87;21470;-81
2023/07/25 01:00:21;;;;;;;27.27;18.45;;;;;;;24.08;76.49;99252.60;1432688;90;21493;-82
2023/07/25 01:02:48;;;;;;;24.70;17.82;;;;;;;24.10;75.89;99254.52;1482150;87;21427;-82
2023/07/25 01:05:15;;;;;;;27.45;18.73;;;;;;;24.09;75.64;99256.95;1431044;90;21531;-82
2023/07/25 01:07:42;;;;;;;32.98;19.67;;;;;;;24.10;75.62;99252.62;1470403;87;22469;-83
2023/07/25 01:10:08;;;;;;;28.38;19.07;;;;;;;24.09;75.57;99254.25;1468380;87;21493;-82
2023/07/25 01:12:36;;;;;;;35.40;19.27;;;;;;;24.07;75.87;99256.39;1486321;87;22047;-81
2023/07/25 01:15:03;;;;;;;27.58;19.07;;;;;;;24.06;75.68;99248.02;1431891;90;21509;-82
2023/07/25 01:17:29;;;;;;;25.00;18.45;;;;;;;24.05;75.69;99249.08;1436139;90;21546;-82
2023/07/25 01:19:56;;;;;;;25.10;17.32;;;;;;;24.03;75.89;99243.95;1442934;90;21450;-82
2023/07/25 01:22:24;;;;;;;27.13;17.60;;;;;;;24.02;76.34;99225.29;1433928;90;21545;-79
2023/07/25 01:24:54;;;;;;;30.12;18.73;;;;;;;24.03;76.45;99226.94;1432425;90;22486;-81
2023/07/25 01:27:21;;;;;;;27.50;16.57;;;;;;;24.04;76.41;99228.55;1472666;88;21679;-82
2023/07/25 01:29:47;;;;;;;21.12;16.62;;;;;;;24.05;76.10;99232.86;1466602;88;21441;-81
2023/07/25 01:32:13;;;;;;;25.15;16.90;;;;;;;24.05;76.01;99230.16;1494333;87;21449;-82
2023/07/25 01:34:39;;;;;;;25.90;16.25;;;;;;;24.05;76.08;99224.76;1453015;90;21535;-82
2023/07/25 01:37:07;;;;;;;29.90;17.77;;;;;;;24.05;75.90;99218.00;1498506;87;21456;-82
2023/07/25 01:39:33;;;;;;;28.10;17.15;;;;;;;24.05;76.00;99212.59;1493359;87;21396;-82
2023/07/25 01:41:59;;;;;;;27.00;16.85;;;;;;;24.04;76.26;99221.80;1494997;87;21478;-81
2023/07/25 01:44:25;;;;;;;22.45;15.75;;;;;;;24.03;76.17;99221.53;1448288;90;21641;-80
2023/07/25 01:46:51;;;;;;;25.95;17.67;;;;;;;24.02;76.04;99225.29;1498572;87;21434;-81
2023/07/25 01:49:17;;;;;;;28.50;17.48;;;;;;;24.01;75.98;99226.38;1476355;87;21612;-81
2023/07/25 01:51:43;;;;;;;32.35;16.97;;;;;;;24.01;76.54;99226.38;1470787;87;22491;-82
2023/07/25 01:54:10;;;;;;;24.02;16.12;;;;;;;24.02;76.90;99226.09;1465949;88;22476;-82
2023/07/25 01:56:36;;;;;;;34.23;17.48;;;;;;;24.03;77.00;99223.69;1478626;87;21590;-82
2023/07/25 01:59:02;;;;;;;27.27;16.62;;;;;;;24.03;76.90;99222.88;1466159;87;22262;-80
2023/07/25 02:01:29;;;;;;;26.73;16.95;;;;;;;24.03;76.99;99225.58;1484032;88;21427;-82
2023/07/25 02:03:55;;;;;;;26.23;15.25;;;;;;;24.02;77.29;99225.29;1476057;87;21604;-82
2023/07/25 02:06:21;;;;;;;26.23;16.75;;;;;;;24.01;77.46;99215.57;1482175;88;22353;-82
2023/07/25 02:08:47;;;;;;;23.47;17.60;;;;;;;24.00;77.65;99219.36;1469531;87;21585;-82
2023/07/25 02:11:14;;;;;;;24.55;16.37;;;;;;;23.98;77.46;99212.05;1474541;87;21397;-82
2023/07/25 02:13:40;;;;;;;24.75;16.42;;;;;;;23.95;77.88;99219.34;1467556;87;21471;-82
2023/07/25 02:16:06;;;;;;;29.23;17.27;;;;;;;23.93;78.20;99214.19;1488445;87;21542;-81
2023/07/25 02:18:32;;;;;;;29.95;15.60;;;;;;;23.93;78.93;99197.16;1480060;87;21382;-81
2023/07/25 02:21:00;;;;;;;32.33;18.23;;;;;;;23.94;78.67;99179.86;1479970;86;22322;-81
2023/07/25 02:23:26;;;;;;;24.95;15.98;;;;;;;23.95;78.60;99156.64;1454204;87;21476;-81
2023/07/25 02:25:52;;;;;;;31.55;15.28;;;;;;;23.96;78.48;99153.40;1478168;87;22483;-80
2023/07/25 02:28:18;;;;;;;26.65;15.10;;;;;;;23.95;78.35;99157.19;1478044;87;21420;-81
2023/07/25 02:30:46;;;;;;;24.65;14.80;;;;;;;23.94;78.46;99180.70;1484683;87;22093;-80
2023/07/25 02:33:14;;;;;;;26.12;15.72;;;;;;;23.94;78.57;99187.97;1473877;87;21456;-82
2023/07/25 02:35:40;;;;;;;25.37;14.23;;;;;;;23.92;78.56;99201.77;1474173;87;21626;-82
2023/07/25 02:38:07;;;;;;;25.57;16.95;;;;;;;23.90;78.89;99216.06;1452803;87;21471;-81
2023/07/25 02:40:33;;;;;;;24.20;14.35;;;;;;;23.88;79.46;99210.14;1472691;88;21485;-82
2023/07/25 02:43:02;;;;;;;23.32;14.00;;;;;;;23.87;79.97;99218.75;1470651;88;21677;-82
2023/07/25 02:45:28;;;;;;;22.30;14.17;;;;;;;23.89;80.26;99216.34;1474008;88;21537;-81
2023/07/25 02:47:55;;;;;;;24.65;14.90;;;;;;;23.90;80.19;99223.36;1470514;88;22892;-82
2023/07/25 02:50:21;;;;;;;26.35;15.00;;;;;;;23.91;80.15;99254.70;1470012;87;21544;-81
2023/07/25 02:52:47;;;;;;;25.52;14.50;;;;;;;23.90;80.19;99259.84;1477138;87;21514;-81
2023/07/25 02:55:13;;;;;;;20.75;14.05;;;;;;;23.87;80.28;99267.38;1476160;88;21500;-80
2023/07/25 02:57:39;;;;;;;23.42;14.10;;;;;;;23.85;80.97;99280.88;1467440;88;21677;-81
2023/07/25 03:00:07;;;;;;;23.18;14.10;;;;;;;23.83;81.38;99304.12;1470144;87;21461;-80
2023/07/25 03:02:33;;;;;;;22.93;14.15;;;;;;;23.81;81.74;99301.41;1474572;88;21689;-81
2023/07/25 03:05:00;;;;;;;18.37;13.13;;;;;;;23.83;81.93;99320.88;1473269;88;21476;-81
2023/07/25 03:07:26;;;;;;;19.60;14.28;;;;;;;23.84;81.96;99311.69;1476729;87;21375;-81
2023/07/25 03:09:52;;;;;;;21.52;14.60;;;;;;;23.84;81.86;99294.93;1471015;88;21441;-81
2023/07/25 03:12:18;;;;;;;25.23;13.90;;;;;;;23.84;82.20;99286.83;1474102;87;21566;-81
2023/07/25 03:14:44;;;;;;;27.55;13.30;;;;;;;23.82;82.45;99278.19;1470217;87;21538;-82
2023/07/25 03:17:11;;;;;;;22.90;14.45;;;;;;;23.80;82.66;99266.02;1471714;87;22484;-81
2023/07/25 03:19:36;;;;;;;25.57;14.05;;;;;;;23.78;82.97;99267.62;1462609;88;21456;-81
2023/07/25 03:22:03;;;;;;;22.77;12.40;;;;;;;23.80;83.04;99259.27;1477773;87;21389;-81
2023/07/25 03:24:29;;;;;;;24.20;13.53;;;;;;;23.81;82.87;99252.23;1476041;87;21612;-81
2023/07/25 03:26:55;;;;;;;26.40;12.20;;;;;;;23.82;82.59;99253.87;1449439;90;22390;-81
2023/07/25 03:29:22;;;;;;;24.63;13.30;;;;;;;23.84;82.65;99246.30;1486756;87;21514;-83
2023/07/25 03:31:48;;;;;;;21.57;12.10;;;;;;;23.83;82.72;99236.58;1498743;87;21581;-81
2023/07/25 03:34:14;;;;;;;22.42;11.90;;;;;;;23.83;82.41;99228.47;1479826;87;21468;-80
2023/07/25 03:36:40;;;;;;;21.62;11.55;;;;;;;23.80;82.37;99211.45;1472146;87;21426;-81
2023/07/25 03:39:06;;;;;;;21.55;11.97;;;;;;;23.80;82.73;99204.69;1471316;88;21411;-80
2023/07/25 03:41:32;;;;;;;27.05;12.23;;;;;;;23.82;82.96;99174.69;1475347;88;21485;-81
2023/07/25 03:43:58;;;;;;;23.47;12.10;;;;;;;23.82;83.20;99146.33;1478311;86;21552;-82
2023/07/25 03:46:24;;;;;;;20.15;11.85;;;;;;;23.85;82.91;99116.91;1450729;90;22956;-81
2023/07/25 03:48:50;;;;;;;22.37;13.45;;;;;;;23.89;82.56;99109.63;1490846;87;21390;-81
2023/07/25 03:51:23;;;;;;;26.42;12.53;;;;;;;23.91;82.43;99129.06;1495213;87;21522;-81
2023/07/25 03:53:49;;;;;;;20.52;11.90;;;;;;;23.89;82.53;99144.20;1476420;87;22284;-81
2023/07/25 03:56:15;;;;;;;22.98;12.40;;;;;;;23.86;82.67;99163.11;1467921;88;22043;-81
2023/07/25 03:58:41;;;;;;;19.52;11.97;;;;;;;23.83;83.27;99167.69;1471508;88;21449;-82
2023/07/25 04:01:07;;;;;;;19.73;11.90;;;;;;;23.84;83.53;99182.81;1470273;87;22416;-81
2023/07/25 04:03:33;;;;;;;21.33;11.57;;;;;;;23.83;83.90;99190.66;1467256;88;21442;-83
2023/07/25 04:05:59;;;;;;;23.75;10.85;;;;;;;23.84;83.74;99192.27;1469494;88;21360;-81
2023/07/25 04:08:26;;;;;;;21.15;11.33;;;;;;;23.85;83.32;99180.41;1488006;87;22336;-79
2023/07/25 04:10:53;;;;;;;25.27;11.70;;;;;;;23.84;82.78;99180.11;1441228;91;21440;-81
2023/07/25 04:13:19;;;;;;;24.52;10.93;;;;;;;23.84;82.55;99165.25;1492196;87;21434;-79
2023/07/25 04:15:46;;;;;;;20.80;10.98;;;;;;;23.82;81.98;99156.63;1435677;91;22396;-81
2023/07/25 04:18:12;;;;;;;21.20;10.72;;;;;;;23.82;81.53;99153.92;1476198;87;21456;-82
2023/07/25 04:20:38;;;;;;;27.77;12.23;;;;;;;23.81;81.31;99125.27;1474020;87;21478;-88
2023/07/25 04:23:04;;;;;;;17.95;11.50;;;;;;;23.80;81.00;99109.34;1483906;87;21522;-90
2023/07/25 04:25:30;;;;;;;24.80;9.85;;;;;;;23.81;80.98;99094.73;1421314;91;22381;-88
2023/07/25 04:27:57;;;;;;;16.80;9.65;;;;;;;23.84;81.09;99084.20;1467265;87;21552;-89
2023/07/25 04:30:23;;;;;;;21.62;9.65;;;;;;;23.88;81.38;99085.85;1470293;88;21471;-89
2023/07/25 04:32:49;;;;;;;13.75;8.80;;;;;;;23.93;81.31;99102.59;1422701;88;21499;-89
2023/07/25 04:35:15;;;;;;;19.37;8.35;;;;;;;23.97;81.00;99117.21;1464416;88;22328;-90
2023/07/25 04:37:41;;;;;;;24.98;9.90;;;;;;;23.99;80.74;99116.38;1474873;87;22433;-90
2023/07/25 04:40:09;;;;;;;17.57;7.87;;;;;;;24.03;80.71;99114.79;1472556;87;21463;-90
2023/07/25 04:42:35;;;;;;;15.10;9.40;;;;;;;24.06;80.44;99112.90;1496021;87;21947;-90
2023/07/25 04:45:04;;;;;;;21.27;8.80;;;;;;;24.07;80.25;99111.81;1486349;87;21536;-90
2023/07/25 04:47:33;;;;;;;19.90;8.95;;;;;;;24.07;80.11;99103.70;1485141;87;22402;-88
2023/07/25 04:49:58;;;;;;;17.98;8.60;;;;;;;24.06;80.07;99110.20;1466333;87;22558;-86
2023/07/25 04:52:25;;;;;;;13.62;7.85;;;;;;;24.10;79.98;99112.08;1465015;88;21493;-89
2023/07/25 04:54:55;;;;;;;19.77;8.23;;;;;;;24.13;80.04;99128.84;1471761;88;21470;-88
2023/07/25 04:57:20;;;;;;;19.02;7.83;;;;;;;24.13;79.98;99126.14;1477912;88;22389;-89
2023/07/25 04:59:46;;;;;;;16.80;7.72;;;;;;;24.19;79.91;99126.41;1428930;89;21644;-92
2023/07/25 05:02:15;;;;;;;14.95;7.65;;;;;;;24.18;79.96;99122.91;1466501;88;22322;-92
2023/07/25 05:04:41;;;;;;;21.80;7.95;;;;;;;24.20;80.17;99123.45;1459344;88;21418;-90
2023/07/25 05:07:07;;;;;;;11.43;6.65;;;;;;;24.24;80.25;99144.00;1435311;89;22601;-87
2023/07/25 05:09:33;;;;;;;17.48;8.48;;;;;;;24.24;80.12;99128.59;1458404;89;21537;-90
2023/07/25 05:12:00;;;;;;;13.38;8.25;;;;;;;24.30;79.58;99118.59;1453322;89;21447;-90
2023/07/25 05:14:26;;;;;;;19.70;7.80;;;;;;;24.32;79.20;99165.10;1468133;88;21441;-90
2023/07/25 05:16:52;;;;;;;25.52;8.20;;;;;;;24.28;79.19;99146.42;1430774;91;21501;-91
2023/07/25 05:19:18;;;;;;;25.45;7.33;;;;;;;24.27;79.18;99147.52;1453852;89;21492;-91
2023/07/25 05:21:44;;;;;;;10.85;6.62;;;;;;;24.24;79.27;99173.19;1408929;91;23360;-91
2023/07/25 05:24:10;;;;;;;14.87;6.87;;;;;;;24.19;79.03;99166.96;1395534;92;21561;-90
2023/07/25 05:26:37;;;;;;;15.93;7.22;;;;;;;24.18;79.30;99166.16;1457572;89;21456;-89
2023/07/25 05:29:03;;;;;;;21.68;6.72;;;;;;;24.15;79.23;99173.99;1426337;91;21385;-91
2023/07/25 05:31:29;;;;;;;17.32;6.92;;;;;;;24.07;79.41;99178.02;1436000;90;22458;-89
2023/07/25 05:33:55;;;;;;;15.00;7.17;;;;;;;24.03;79.54;99172.34;1493756;87;21419;-93
2023/07/25 05:36:21;;;;;;;17.02;6.92;;;;;;;24.03;80.01;99189.10;1482462;86;21412;-91
2023/07/25 05:38:47;;;;;;;17.40;7.67;;;;;;;24.00;80.32;99178.83;1482577;88;21433;-89
2023/07/25 05:41:13;;;;;;;13.62;7.42;;;;;;;23.99;80.17;99176.64;1466343;88;22300;-90
2023/07/25 05:43:40;;;;;;;12.95;7.17;;;;;;;23.99;80.02;99169.08;1421497;91;21597;-90
2023/07/25 05:46:07;;;;;;;17.12;7.58;;;;;;;24.00;79.86;99172.08;1432187;91;21525;-93
2023/07/25 05:48:33;;;;;;;18.27;8.00;;;;;;;24.02;79.86;99168.54;1411633;90;21346;-90
2023/07/25 05:51:03;;;;;;;13.53;6.17;;;;;;;24.04;80.03;99178.55;1455374;88;21316;-92
2023/07/25 05:53:28;;;;;;;22.27;6.95;;;;;;;24.04;79.72;99173.95;1444915;90;21509;-88
2023/07/25 05:55:54;;;;;;;15.43;6.58;;;;;;;24.05;80.03;99182.88;1490322;87;21551;-86
2023/07/25 05:58:20;;;;;;;20.62;6.72;;;;;;;24.05;80.03;99195.03;1474907;87;22322;-91
2023/07/25 06:00:48;;;;;;;12.25;6.53;;;;;;;24.15;80.60;99199.13;1474924;87;21353;-83
2023/07/25 06:03:16;;;;;;;18.98;6.97;;;;;;;24.32;80.77;99199.70;1459113;87;21464;-83
2023/07/25 06:05:42;;;;;;;19.62;6.40;;;;;;;24.55;80.64;99198.95;1489508;87;22394;-86
2023/07/25 06:08:09;;;;;;;14.03;6.30;;;;;;;24.74;79.65;99190.59;1493723;87;21418;-83
2023/07/25 06:10:36;;;;;;;15.13;6.87;;;;;;;24.89;78.43;99191.66;1440452;90;22448;-83
2023/07/25 06:13:04;;;;;;;14.73;7.35;;;;;;;25.06;78.24;99185.42;1458955;88;21405;-84
2023/07/25 06:15:34;;;;;;;16.17;6.92;;;;;;;25.20;76.79;99191.92;1475865;88;21493;-86
2023/07/25 06:18:04;;;;;;;19.57;7.83;;;;;;;25.29;76.17;99185.92;1472596;88;21479;-84
2023/07/25 06:20:34;;;;;;;12.63;6.35;;;;;;;25.37;76.21;99182.66;1474253;87;22830;-80
2023/07/25 06:23:01;;;;;;;15.05;7.20;;;;;;;25.47;75.79;99184.55;1476038;88;21455;-83
2023/07/25 06:25:31;;;;;;;18.30;6.67;;;;;;;25.56;75.11;99182.33;1487032;88;22211;-82
2023/07/25 06:27:57;;;;;;;19.55;6.70;;;;;;;25.54;74.40;99182.34;1466177;87;21294;-82
2023/07/25 06:30:23;;;;;;;16.67;6.87;;;;;;;25.37;74.02;99194.30;1479450;88;21493;-83
2023/07/25 06:32:49;;;;;;;17.37;6.47;;;;;;;25.26;74.49;99206.78;1473412;86;22223;-84
2023/07/25 06:35:16;;;;;;;11.78;6.37;;;;;;;25.24;75.32;99197.59;1476552;88;21484;-82
2023/07/25 06:37:42;;;;;;;16.97;6.85;;;;;;;25.32;75.65;99202.45;1469047;87;21597;-83
2023/07/25 06:40:09;;;;;;;23.55;7.33;;;;;;;25.38;75.10;99210.03;1442735;88;22382;-83
2023/07/25 06:42:35;;;;;;;16.70;7.78;;;;;;;25.40;75.31;99203.77;1478697;88;22335;-83
2023/07/25 06:45:01;;;;;;;15.98;7.47;;;;;;;25.47;75.53;99208.37;1454730;87;21338;-84
2023/07/25 06:47:27;;;;;;;16.70;7.87;;;;;;;25.58;75.68;99216.73;1477158;88;21331;-83
2023/07/25 06:49:53;;;;;;;13.78;6.55;;;;;;;25.66;75.21;99205.34;1478286;87;22234;-83
2023/07/25 06:52:19;;;;;;;11.28;7.28;;;;;;;25.74;74.99;99205.83;1493277;86;21419;-84
2023/07/25 06:54:45;;;;;;;12.45;6.37;;;;;;;25.84;74.43;99218.03;1444118;89;21405;-83
2023/07/25 06:57:22;;;;;;;15.38;6.45;;;;;;;25.88;73.82;99217.73;1483549;86;21455;-83
2023/07/25 06:59:48;;;;;;;13.43;7.55;;;;;;;25.95;73.87;99205.22;1483969;86;21463;-83
2023/07/25 07:02:14;;;;;;;14.58;6.92;;;;;;;26.05;73.61;99210.06;1477777;87;21470;-83
2023/07/25 07:04:40;;;;;;;11.05;6.65;;;;;;;26.11;73.05;99204.88;1479811;88;22719;-83
2023/07/25 07:07:07;;;;;;;15.72;7.60;;;;;;;26.20;72.71;99201.58;1472972;86;21471;-83
2023/07/25 07:09:33;;;;;;;20.90;8.48;;;;;;;26.30;73.07;99200.17;1475204;88;21572;-83
2023/07/25 07:11:59;;;;;;;17.98;6.90;;;;;;;26.40;72.67;99197.92;1474850;88;22328;-84
2023/07/25 07:14:26;;;;;;;17.52;6.78;;;;;;;26.49;71.96;99200.30;1477519;88;21500;-84
2023/07/25 07:16:52;;;;;;;13.88;6.58;;;;;;;26.55;71.36;99205.42;1490723;86;21492;-84
2023/07/25 07:19:18;;;;;;;16.37;6.78;;;;;;;26.65;71.32;99211.89;1472198;86;22719;-83
2023/07/25 07:21:44;;;;;;;14.83;6.90;;;;;;;26.77;70.60;99208.26;1484014;86;21477;-81
2023/07/25 07:24:10;;;;;;;22.90;8.43;;;;;;;26.83;69.31;99211.19;1462514;86;21673;-83
2023/07/25 07:26:36;;;;;;;22.77;7.95;;;;;;;26.90;68.71;99208.97;1474223;88;22146;-83
2023/07/25 07:29:02;;;;;;;13.30;6.80;;;;;;;26.95;68.15;99214.33;1471213;86;21434;-82
2023/07/25 07:31:29;;;;;;;14.13;6.25;;;;;;;27.00;68.10;99212.12;1479713;88;21655;-82
2023/07/25 07:34:11;;;;;;;14.23;6.53;;;;;;;27.04;67.26;99209.09;1493390;86;21389;-82
2023/07/25 07:36:37;;;;;;;22.58;7.90;;;;;;;27.11;66.62;99201.44;1503120;86;21596;-83
2023/07/25 07:39:03;;;;;;;17.65;6.85;;;;;;;27.18;67.63;99197.05;1473480;86;21425;-83
2023/07/25 07:41:29;;;;;;;13.18;6.83;;;;;;;27.30;67.47;99186.59;1474476;88;21538;-83
2023/07/25 07:43:55;;;;;;;14.43;6.75;;;;;;;27.43;67.04;99187.28;1405499;91;21601;-83
2023/07/25 07:46:22;;;;;;;17.23;7.90;;;;;;;27.49;66.19;99189.94;1436045;89;22375;-83
2023/07/25 07:48:48;;;;;;;13.08;7.03;;;;;;;27.58;65.48;99194.44;1501395;86;21440;-83
2023/07/25 07:51:14;;;;;;;13.20;6.85;;;;;;;27.68;64.98;99185.37;1482552;86;21441;-83
2023/07/25 07:53:40;;;;;;;12.60;6.75;;;;;;;27.79;64.35;99188.78;1476250;88;21757;-82
2023/07/25 07:56:08;;;;;;;13.50;7.25;;;;;;;27.86;63.71;99177.81;1475222;87;21441;-81
2023/07/25 07:58:34;;;;;;;19.50;7.78;;;;;;;27.97;62.99;99183.13;1469358;88;21896;-81
2023/07/25 08:01:01;;;;;;;16.25;7.33;;;;;;;28.07;62.49;99174.27;1454479;88;22057;-83
2023/07/25 08:03:27;;;;;;;11.53;7.17;;;;;;;28.19;62.12;99162.94;1473514;86;21500;-82
2023/07/25 08:05:57;;;;;;;19.40;8.73;;;;;;;28.33;61.20;99169.81;1424831;90;21517;-81
2023/07/25 08:08:23;;;;;;;13.83;7.10;;;;;;;28.42;60.14;99170.78;1476609;87;22255;-83
2023/07/25 08:10:49;;;;;;;14.80;7.40;;;;;;;28.53;59.00;99171.44;1471315;88;21611;-82
2023/07/25 08:13:16;;;;;;;25.32;7.90;;;;;;;28.64;59.38;99170.73;1471596;87;21530;-84
2023/07/25 08:15:42;;;;;;;10.78;6.78;;;;;;;28.73;58.83;99175.18;1475233;87;21544;-83
2023/07/25 08:18:08;;;;;;;20.90;8.70;;;;;;;28.84;59.38;99162.77;1474940;87;22587;-83
2023/07/25 08:20:34;;;;;;;12.00;7.03;;;;;;;28.95;58.57;99154.67;1473490;88;21485;-83
2023/07/25 08:23:00;;;;;;;16.70;7.35;;;;;;;29.03;57.00;99161.35;1470464;87;21426;-84
2023/07/25 08:25:26;;;;;;;16.52;8.18;;;;;;;29.11;57.96;99166.11;1472903;88;21412;-83
2023/07/25 08:27:52;;;;;;;20.20;7.37;;;;;;;29.12;56.78;99167.19;1475724;87;22688;-85
2023/07/25 08:30:18;;;;;;;18.27;7.83;;;;;;;29.17;57.31;99164.91;1470484;88;21439;-84
2023/07/25 08:32:45;;;;;;;17.65;8.28;;;;;;;29.28;56.76;99158.16;1466419;87;21538;-85
2023/07/25 08:35:11;;;;;;;16.02;8.15;;;;;;;29.32;56.02;99159.18;1487592;87;21396;-85
2023/07/25 08:37:37;;;;;;;12.80;7.12;;;;;;;29.36;54.89;99164.83;1459471;88;21501;-86
2023/07/25 08:40:04;;;;;;;15.50;8.90;;;;;;;29.35;54.58;99160.50;1472429;88;22278;-84
2023/07/25 08:42:32;;;;;;;17.15;8.05;;;;;;;29.37;54.92;99163.14;1471852;87;21442;-85
2023/07/25 08:45:01;;;;;;;16.15;7.67;;;;;;;29.46;54.53;99161.88;1472654;87;21471;-85
2023/07/25 08:47:28;;;;;;;19.12;7.53;;;;;;;29.48;54.15;99162.39;1472199;87;21575;-86
2023/07/25 08:49:58;;;;;;;14.13;7.30;;;;;;;29.51;54.43;99159.62;1473433;87;22032;-85
2023/07/25 08:52:28;;;;;;;16.60;8.23;;;;;;;29.53;54.06;99165.02;1477580;87;21397;-85
2023/07/25 08:54:55;;;;;;;20.75;8.03;;;;;;;29.59;54.31;99167.89;1484636;87;21608;-85
2023/07/25 08:57:22;;;;;;;13.60;7.35;;;;;;;29.74;54.28;99170.88;1476281;87;22207;-85
2023/07/25 08:59:50;;;;;;;14.80;6.78;;;;;;;29.77;54.08;99174.36;1474099;88;21603;-87
2023/07/25 09:02:17;;;;;;;19.32;8.50;;;;;;;29.85;53.86;99175.57;1475341;87;22505;-86
2023/07/25 09:04:49;;;;;;;14.05;6.80;;;;;;;29.92;53.66;99178.67;1473509;87;23184;-85
2023/07/25 09:07:13;;;;;;;12.18;7.10;;;;;;;29.91;53.65;99178.44;1446985;88;21442;-83
2023/07/25 09:09:39;;;;;;;12.43;7.90;;;;;;;29.98;53.62;99184.30;1476297;87;21493;-84
2023/07/25 09:12:07;;;;;;;13.32;7.65;;;;;;;29.97;52.72;99188.11;1473301;87;22409;-84
2023/07/25 09:14:36;;;;;;;12.65;7.70;;;;;;;30.00;52.91;99186.14;1475423;87;22292;-84
2023/07/25 09:17:05;;;;;;;15.93;7.43;;;;;;;30.04;52.13;99190.45;1480878;87;22074;-87
2023/07/25 09:19:33;;;;;;;13.85;7.08;;;;;;;30.06;52.20;99192.29;1471969;88;22938;-84
2023/07/25 09:22:00;;;;;;;13.18;7.70;;;;;;;30.14;51.88;99190.20;1518969;87;21604;-86
2023/07/25 09:24:38;;;;;;;14.63;8.48;;;;;;;30.16;51.49;99179.80;1396016;87;21376;-83
2023/07/25 09:27:16;;;;;;;16.60;7.90;;;;;;;30.12;50.22;99178.25;1512784;87;21559;-87
2023/07/25 09:29:42;;;;;;;11.90;7.15;;;;;;;30.24;50.26;99160.53;1573943;86;21515;-86
2023/07/25 09:32:25;;;;;;;13.38;8.75;;;;;;;30.35;49.78;99143.63;1577758;87;22058;-83
2023/07/25 09:34:59;;;;;;;19.10;6.90;;;;;;;30.43;49.59;99137.97;1387499;94;21397;-84
2023/07/25 09:37:27;;;;;;;17.77;7.60;;;;;;;30.39;50.11;99128.00;1564734;87;21235;-84
2023/07/25 09:39:54;;;;;;;13.98;6.92;;;;;;;30.36;50.36;99123.97;1407036;87;22449;-85
2023/07/25 09:42:22;;;;;;;12.50;6.58;;;;;;;30.24;50.29;99108.69;1582135;87;21294;-84
2023/07/25 09:44:51;;;;;;;13.48;6.85;;;;;;;30.19;51.00;99107.44;1372353;90;21531;-84
2023/07/25 09:47:27;;;;;;;12.15;7.42;;;;;;;30.20;50.66;99109.84;1578952;87;21316;-83
2023/07/25 09:49:56;;;;;;;8.88;6.15;;;;;;;30.22;50.51;99114.47;1501512;90;21413;-85
2023/07/25 09:52:25;;;;;;;9.43;6.45;;;;;;;30.18;50.15;99121.61;1413842;87;21398;-82
2023/07/25 09:54:51;;;;;;;17.37;6.90;;;;;;;30.23;50.14;99113.91;1375069;90;21450;-84
2023/07/25 09:57:19;;;;;;;13.15;6.05;;;;;;;30.27;50.41;99110.27;1508214;90;21384;-83
2023/07/25 09:59:49;;;;;;;10.45;6.12;;;;;;;30.33;50.25;99111.75;1388711;89;21478;-83
2023/07/25 10:02:16;;;;;;;17.85;7.15;;;;;;;30.35;50.61;99110.05;1538358;87;22292;-84
2023/07/25 10:04:43;;;;;;;9.08;5.95;;;;;;;30.39;49.93;99115.16;1473188;88;21463;-84
2023/07/25 10:07:10;;;;;;;15.13;6.60;;;;;;;30.39;50.07;99108.90;1469545;88;22543;-84
2023/07/25 10:09:38;;;;;;;10.50;6.00;;;;;;;30.37;50.40;99109.20;1471833;88;21433;-82
2023/07/25 10:12:06;;;;;;;9.63;5.65;;;;;;;30.31;49.59;99111.23;1473369;87;21722;-83
2023/07/25 10:14:38;;;;;;;10.68;5.75;;;;;;;30.11;48.97;99108.41;1464515;87;21842;-82
2023/07/25 10:17:07;;;;;;;10.75;5.47;;;;;;;30.12;49.76;99111.94;1472357;87;22513;-83
2023/07/25 10:19:52;;;;;;;17.40;6.17;;;;;;;30.18;49.91;99103.08;1469396;88;21471;-82
2023/07/25 10:22:34;;;;;;;11.68;5.45;;;;;;;30.26;49.78;99102.37;1487755;87;21389;-82
2023/07/25 10:25:01;;;;;;;18.42;6.50;;;;;;;30.24;49.41;99093.14;1487856;87;21538;-82
2023/07/25 10:27:27;;;;;;;11.28;6.03;;;;;;;30.28;49.95;99094.69;1473966;88;21411;-81
2023/07/25 10:30:01;;;;;;;8.80;5.65;;;;;;;30.17;49.03;99087.84;1474451;87;22460;-82
2023/07/25 10:32:46;;;;;;;7.83;5.35;;;;;;;30.13;48.92;99088.45;1470880;87;21412;-84
2023/07/25 10:35:12;;;;;;;12.37;5.53;;;;;;;30.03;48.81;99080.50;1471824;88;21492;-84
2023/07/25 10:37:45;;;;;;;19.62;6.83;;;;;;;30.01;49.18;99082.76;1472183;87;21463;-81
2023/07/25 10:40:17;;;;;;;12.53;5.58;;;;;;;30.02;48.58;99080.27;1471376;87;22587;-81
2023/07/25 10:42:54;;;;;;;12.43;4.58;;;;;;;30.00;48.54;99075.67;1528832;90;21349;-82
2023/07/25 10:45:30;;;;;;;10.15;5.20;;;;;;;30.02;48.58;99083.00;1558912;86;21530;-81
2023/07/25 10:47:59;;;;;;;12.58;5.37;;;;;;;30.02;47.50;99080.83;1522097;90;21472;-84
2023/07/25 10:50:29;;;;;;;8.07;5.33;;;;;;;30.08;47.16;99064.02;1490852;88;21361;-83
2023/07/25 10:52:55;;;;;;;9.93;4.65;;;;;;;30.19;47.10;99061.06;1411857;87;21467;-84
2023/07/25 10:55:21;;;;;;;18.52;5.72;;;;;;;30.30;47.19;99074.73;1406932;88;22350;-82
2023/07/25 10:58:08;;;;;;;7.55;4.80;;;;;;;30.29;46.43;99090.27;1407870;86;22293;-83
2023/07/25 11:00:36;;;;;;;10.40;4.75;;;;;;;30.26;45.72;99086.80;1561077;87;22336;-82
2023/07/25 11:03:29;;;;;;;9.78;5.10;;;;;;;30.24;45.68;99104.59;1410796;87;21530;-82
2023/07/25 11:06:16;;;;;;;12.90;4.50;;;;;;;30.15;45.17;99114.05;1400271;86;21330;-80
2023/07/25 11:08:45;;;;;;;6.92;4.10;;;;;;;29.93;45.35;99133.14;1526367;89;21465;-81
2023/07/25 11:11:12;;;;;;;8.93;5.25;;;;;;;29.73;45.26;99149.39;1423257;89;21406;-81
2023/07/25 11:13:41;;;;;;;12.88;4.95;;;;;;;29.56;46.08;99149.42;1388319;89;21516;-81
2023/07/25 11:16:14;;;;;;;18.35;5.60;;;;;;;29.40;46.59;99157.09;1379904;89;21368;-80
2023/07/25 11:18:50;;;;;;;8.93;4.00;;;;;;;29.26;47.02;99163.09;1442700;89;22403;-82
2023/07/25 11:21:17;;;;;;;11.03;4.97;;;;;;;29.07;47.32;99168.63;1436713;89;21458;-82
2023/07/25 11:23:43;;;;;;;15.25;5.00;;;;;;;28.91;49.88;99169.98;1362452;91;21553;-80